createdAt,value
2023-04-22T00:01:05.565Z,9.31
2023-04-22T00:03:34.131Z,9.31
2023-04-22T00:06:01.431Z,9.30
2023-04-22T00:08:28.437Z,9.21
2023-04-22T00:10:56.857Z,9.16
2023-04-22T00:13:23.738Z,9.12
2023-04-22T00:15:51.401Z,9.15
2023-04-22T00:18:18.435Z,9.16
2023-04-22T00:20:45.889Z,9.10
2023-04-22T00:23:13.762Z,9.03
2023-04-22T00:25:41.275Z,9.02
2023-04-22T00:28:08.183Z,8.93
2023-04-22T00:30:36.374Z,8.92
2023-04-22T00:33:03.432Z,8.88
2023-04-22T00:35:30.687Z,8.86
2023-04-22T00:37:57.773Z,8.88
2023-04-22T00:40:24.641Z,8.85
2023-04-22T00:42:51.724Z,8.82
2023-04-22T00:45:21.110Z,8.76
2023-04-22T00:47:49.243Z,8.75
2023-04-22T00:50:16.697Z,8.73
2023-04-22T00:52:43.542Z,8.75
2023-04-22T00:55:11.911Z,8.73
2023-04-22T00:57:39.556Z,8.74
2023-04-22T01:00:09.941Z,8.71
2023-04-22T01:02:39.032Z,8.60
2023-04-22T01:05:09.615Z,8.67
2023-04-22T01:07:37.012Z,8.70
2023-04-22T01:10:05.270Z,8.70
2023-04-22T01:12:32.134Z,8.71
2023-04-22T01:14:59.069Z,8.67
2023-04-22T01:17:26.080Z,8.68
2023-04-22T01:19:53.005Z,8.67
2023-04-22T01:22:21.786Z,8.63
2023-04-22T01:24:49.436Z,8.51
2023-04-22T01:27:16.414Z,8.53
2023-04-22T01:29:43.853Z,8.47
2023-04-22T01:32:11.128Z,8.37
2023-04-22T01:34:38.135Z,8.33
2023-04-22T01:37:05.035Z,8.31
2023-04-22T01:39:31.941Z,8.33
2023-04-22T01:41:59.911Z,8.34
2023-04-22T01:44:27.188Z,8.28
2023-04-22T01:46:54.510Z,8.37
2023-04-22T01:49:21.431Z,8.36
2023-04-22T01:51:48.272Z,8.36
2023-04-22T01:54:16.254Z,8.23
2023-04-22T01:56:44.276Z,8.29
2023-04-22T01:59:11.114Z,8.25
2023-04-22T02:01:38.037Z,8.21
2023-04-22T02:04:04.919Z,8.14
2023-04-22T02:06:32.541Z,8.03
2023-04-22T02:08:59.388Z,7.94
2023-04-22T02:11:26.248Z,7.97
2023-04-22T02:13:53.064Z,7.97
2023-04-22T02:16:19.944Z,7.93
2023-04-22T02:18:46.798Z,7.95
2023-04-22T02:21:13.757Z,7.96
2023-04-22T02:23:41.581Z,7.99
2023-04-22T02:26:08.741Z,8.03
2023-04-22T02:28:35.684Z,7.98
2023-04-22T02:31:02.809Z,7.94
2023-04-22T02:33:29.686Z,7.95
2023-04-22T02:35:56.540Z,7.90
2023-04-22T02:38:23.798Z,7.90
2023-04-22T02:40:50.634Z,7.83
2023-04-22T02:43:17.514Z,7.78
2023-04-22T02:45:44.400Z,7.72
2023-04-22T02:48:11.295Z,7.62
2023-04-22T02:50:38.129Z,7.49
2023-04-22T02:53:05.148Z,7.54
2023-04-22T02:55:32.118Z,7.55
2023-04-22T02:57:59.016Z,7.44
2023-04-22T03:00:26.099Z,7.35
2023-04-22T03:02:53.892Z,7.25
2023-04-22T03:05:20.875Z,7.19
2023-04-22T03:07:47.800Z,7.12
2023-04-22T03:10:14.713Z,7.05
2023-04-22T03:12:42.102Z,7.07
2023-04-22T03:15:09.482Z,7.02
2023-04-22T03:17:36.341Z,7.06
2023-04-22T03:20:03.277Z,6.92
2023-04-22T03:22:30.159Z,6.95
2023-04-22T03:24:57.025Z,6.84
2023-04-22T03:27:23.844Z,6.75
2023-04-22T03:29:50.701Z,6.68
2023-04-22T03:32:17.670Z,6.67
2023-04-22T03:34:44.600Z,6.59
2023-04-22T03:37:11.455Z,6.56
2023-04-22T03:39:38.571Z,6.59
2023-04-22T03:42:05.774Z,6.45
2023-04-22T03:44:32.642Z,6.47
2023-04-22T03:46:59.471Z,6.49
2023-04-22T03:49:26.682Z,6.50
2023-04-22T03:51:53.640Z,6.51
2023-04-22T03:54:20.808Z,6.51
2023-04-22T03:56:47.731Z,6.54
2023-04-22T03:59:14.601Z,6.45
2023-04-22T04:01:41.540Z,6.32
2023-04-22T04:04:08.496Z,6.34
2023-04-22T04:06:35.670Z,6.43
2023-04-22T04:09:02.591Z,6.46
2023-04-22T04:11:29.554Z,6.43
2023-04-22T04:13:56.407Z,6.33
2023-04-22T04:16:23.458Z,6.31
2023-04-22T04:18:51.503Z,6.31
2023-04-22T04:21:18.669Z,6.26
2023-04-22T04:23:45.745Z,6.31
2023-04-22T04:26:12.604Z,6.24
2023-04-22T04:28:39.801Z,6.28
2023-04-22T04:31:06.749Z,6.25
2023-04-22T04:33:33.825Z,6.27
2023-04-22T04:36:00.850Z,6.20
2023-04-22T04:38:27.717Z,6.28
2023-04-22T04:40:54.838Z,6.28
2023-04-22T04:43:26.139Z,6.23
2023-04-22T04:45:53.724Z,6.31
2023-04-22T04:48:20.683Z,6.30
2023-04-22T04:50:47.506Z,6.26
2023-04-22T04:53:14.352Z,6.29
2023-04-22T04:55:41.299Z,6.20
2023-04-22T04:58:08.160Z,6.18
2023-04-22T05:00:35.031Z,6.22
2023-04-22T05:03:01.994Z,6.26
2023-04-22T05:05:29.546Z,6.23
2023-04-22T05:07:56.400Z,6.31
2023-04-22T05:10:23.204Z,6.39
2023-04-22T05:12:51.314Z,6.36
2023-04-22T05:15:18.248Z,6.44
2023-04-22T05:17:45.230Z,6.38
2023-04-22T05:20:12.252Z,6.48
2023-04-22T05:22:41.539Z,6.49
2023-04-22T05:25:09.162Z,6.60
2023-04-22T05:27:36.022Z,6.66
2023-04-22T05:30:03.582Z,6.64
2023-04-22T05:32:30.435Z,6.77
2023-04-22T05:34:57.279Z,6.76
2023-04-22T05:37:24.115Z,6.82
2023-04-22T05:39:51.471Z,6.88
2023-04-22T05:42:19.399Z,6.93
2023-04-22T05:44:46.256Z,6.96
2023-04-22T05:47:13.567Z,7.08
2023-04-22T05:49:41.081Z,7.14
2023-04-22T05:52:08.256Z,7.26
2023-04-22T05:54:35.132Z,7.27
2023-04-22T05:57:02.688Z,7.41
2023-04-22T05:59:29.561Z,7.50
2023-04-22T06:01:56.568Z,7.55
2023-04-22T06:04:23.849Z,7.64
2023-04-22T06:06:53.893Z,7.84
2023-04-22T06:09:21.836Z,7.86
2023-04-22T06:11:49.051Z,8.00
2023-04-22T06:14:16.060Z,8.06
2023-04-22T06:16:42.920Z,8.26
2023-04-22T06:19:10.465Z,8.40
2023-04-22T06:21:40.156Z,8.40
2023-04-22T06:24:07.098Z,8.54
2023-04-22T06:26:33.987Z,8.62
2023-04-22T06:29:03.066Z,8.80
2023-04-22T06:31:30.033Z,8.91
2023-04-22T06:33:57.218Z,9.05
2023-04-22T06:36:24.779Z,9.24
2023-04-22T06:38:51.603Z,9.26
2023-04-22T06:41:18.539Z,9.39
2023-04-22T06:43:45.577Z,9.49
2023-04-22T06:46:12.488Z,9.65
2023-04-22T06:48:39.371Z,9.76
2023-04-22T06:51:06.234Z,9.79
2023-04-22T06:53:33.173Z,9.91
2023-04-22T06:56:00.049Z,9.96
2023-04-22T06:58:26.937Z,10.08
2023-04-22T07:00:53.809Z,10.30
2023-04-22T07:03:20.744Z,10.33
2023-04-22T07:05:48.834Z,10.51
2023-04-22T07:08:15.992Z,10.71
2023-04-22T07:10:42.833Z,10.89
2023-04-22T07:13:09.672Z,11.01
2023-04-22T07:15:36.507Z,11.18
2023-04-22T07:18:03.465Z,11.29
2023-04-22T07:20:30.378Z,11.39
2023-04-22T07:22:57.223Z,11.49
2023-04-22T07:25:24.066Z,11.60
2023-04-22T07:27:51.201Z,11.70
2023-04-22T07:30:18.048Z,11.86
2023-04-22T07:32:45.865Z,12.00
2023-04-22T07:35:14.515Z,12.06
2023-04-22T07:37:41.494Z,12.09
2023-04-22T07:40:12.103Z,12.25
2023-04-22T07:42:40.081Z,12.39
2023-04-22T07:45:07.853Z,12.56
2023-04-22T07:47:34.975Z,12.54
2023-04-22T07:50:01.935Z,12.64
2023-04-22T07:52:30.113Z,12.75
2023-04-22T07:54:57.052Z,12.88
2023-04-22T07:57:24.248Z,12.94
2023-04-22T07:59:52.336Z,13.03
2023-04-22T08:02:19.274Z,13.18
2023-04-22T08:04:46.438Z,13.35
2023-04-22T08:07:31.011Z,13.49
2023-04-22T08:09:59.883Z,13.61
2023-04-22T08:12:26.905Z,13.68
2023-04-22T08:14:54.291Z,13.82
2023-04-22T08:17:22.324Z,13.98
2023-04-22T08:19:49.459Z,14.15
2023-04-22T08:22:18.047Z,14.26
2023-04-22T08:24:45.181Z,14.37
2023-04-22T08:27:12.119Z,14.48
2023-04-22T08:29:39.223Z,14.53
2023-04-22T08:32:06.326Z,14.59
2023-04-22T08:34:33.252Z,14.64
2023-04-22T08:37:00.180Z,14.82
2023-04-22T08:39:27.164Z,15.03
2023-04-22T08:41:56.457Z,15.03
2023-04-22T08:44:23.421Z,15.25
2023-04-22T08:46:51.729Z,15.49
2023-04-22T08:49:19.620Z,15.67
2023-04-22T08:51:46.605Z,15.86
2023-04-22T08:54:13.451Z,15.97
2023-04-22T08:56:45.454Z,16.03
2023-04-22T08:59:13.220Z,16.20
2023-04-22T09:01:41.720Z,16.33
2023-04-22T09:04:11.984Z,16.41
2023-04-22T09:06:39.494Z,16.58
2023-04-22T09:09:09.117Z,16.54
2023-04-22T09:11:36.693Z,16.73
2023-04-22T09:14:04.835Z,17.01
2023-04-22T09:16:32.614Z,17.02
2023-04-22T09:18:59.986Z,17.17
2023-04-22T09:21:30.023Z,17.32
2023-04-22T09:24:03.065Z,17.38
2023-04-22T09:26:31.504Z,17.39
2023-04-22T09:28:59.520Z,17.40
2023-04-22T09:31:28.735Z,17.35
2023-04-22T09:34:00.966Z,17.46
2023-04-22T09:36:29.352Z,17.74
2023-04-22T09:39:02.093Z,17.94
2023-04-22T09:41:37.257Z,17.96
2023-04-22T09:44:06.220Z,18.19
2023-04-22T09:46:34.166Z,18.07
2023-04-22T09:49:01.694Z,18.22
2023-04-22T09:51:30.044Z,18.22
2023-04-22T09:54:10.903Z,18.41
2023-04-22T09:56:48.337Z,18.58
2023-04-22T09:59:28.349Z,18.78
2023-04-22T10:02:07.146Z,18.88
2023-04-22T10:04:34.871Z,18.77
2023-04-22T10:07:03.139Z,18.85
2023-04-22T10:09:29.971Z,19.08
2023-04-22T10:12:00.550Z,19.11
2023-04-22T10:14:27.987Z,19.28
2023-04-22T10:17:00.342Z,19.43
2023-04-22T10:19:28.189Z,19.55
2023-04-22T10:22:00.010Z,19.74
2023-04-22T10:24:29.140Z,19.90
2023-04-22T10:26:58.638Z,19.97
2023-04-22T10:29:28.441Z,20.12
2023-04-22T10:31:58.467Z,20.10
2023-04-22T10:34:25.869Z,20.15
2023-04-22T10:37:07.941Z,20.33
2023-04-22T10:39:34.996Z,20.42
2023-04-22T10:42:05.761Z,20.50
2023-04-22T10:44:51.139Z,20.74
2023-04-22T10:47:33.512Z,20.89
2023-04-22T10:50:28.117Z,20.88
2023-04-22T10:53:37.462Z,20.74
2023-04-22T10:56:18.326Z,20.90
2023-04-22T10:58:45.177Z,21.06
2023-04-22T11:01:15.901Z,21.30
2023-04-22T11:03:42.833Z,21.45
2023-04-22T11:06:22.581Z,21.33
2023-04-22T11:08:51.337Z,21.31
2023-04-22T11:11:19.627Z,21.11
2023-04-22T11:13:51.010Z,21.05
2023-04-22T11:16:20.419Z,21.12
2023-04-22T11:18:48.417Z,21.08
2023-04-22T11:21:15.454Z,21.23
2023-04-22T11:23:54.055Z,21.24
2023-04-22T11:26:35.321Z,21.32
2023-04-22T11:29:02.278Z,21.06
2023-04-22T11:31:29.277Z,21.22
2023-04-22T11:34:00.422Z,21.32
2023-04-22T11:36:27.893Z,21.02
2023-04-22T11:38:56.523Z,20.89
2023-04-22T11:41:23.935Z,21.07
2023-04-22T11:43:50.868Z,21.48
2023-04-22T11:46:32.082Z,21.61
2023-04-22T11:49:15.275Z,21.75
2023-04-22T11:51:57.854Z,21.93
2023-04-22T11:54:32.761Z,22.02
2023-04-22T11:57:15.837Z,22.08
2023-04-22T11:59:43.439Z,22.22
2023-04-22T12:02:10.840Z,22.36
2023-04-22T12:04:42.347Z,22.23
2023-04-22T12:07:09.256Z,22.43
2023-04-22T12:09:36.298Z,22.38
2023-04-22T12:12:06.334Z,22.13
2023-04-22T12:14:35.061Z,22.08
2023-04-22T12:17:06.123Z,22.23
2023-04-22T12:19:33.004Z,22.32
2023-04-22T12:21:59.851Z,22.43
2023-04-22T12:24:30.752Z,22.59
2023-04-22T12:26:58.795Z,22.84
2023-04-22T12:29:34.277Z,23.10
2023-04-22T12:32:01.359Z,23.17
2023-04-22T12:34:28.220Z,22.77
2023-04-22T12:36:56.492Z,22.66
2023-04-22T12:39:23.498Z,22.62
2023-04-22T12:41:51.285Z,22.39
2023-04-22T12:44:18.127Z,22.47
2023-04-22T12:46:45.112Z,22.49
2023-04-22T12:49:14.576Z,22.63
2023-04-22T12:51:41.505Z,22.46
2023-04-22T12:54:08.386Z,22.35
2023-04-22T12:56:35.257Z,22.52
2023-04-22T12:59:03.585Z,22.73
2023-04-22T13:01:31.053Z,23.06
2023-04-22T13:03:58.512Z,23.45
2023-04-22T13:06:25.667Z,23.85
2023-04-22T13:08:52.619Z,23.86
2023-04-22T13:11:19.478Z,24.03
2023-04-22T13:13:46.380Z,24.05
2023-04-22T13:16:13.302Z,24.35
2023-04-22T13:18:40.151Z,24.45
2023-04-22T13:21:07.015Z,24.58
2023-04-22T13:23:34.169Z,24.53
2023-04-22T13:26:01.664Z,24.71
2023-04-22T13:28:28.689Z,24.65
2023-04-22T13:30:55.863Z,24.73
2023-04-22T13:33:22.745Z,24.55
2023-04-22T13:35:49.605Z,24.52
2023-04-22T13:38:16.563Z,24.30
2023-04-22T13:40:43.399Z,24.09
2023-04-22T13:43:10.297Z,23.80
2023-04-22T13:45:37.214Z,23.37
2023-04-22T13:48:04.988Z,23.02
2023-04-22T13:50:31.886Z,22.59
2023-04-22T13:52:58.721Z,22.45
2023-04-22T13:55:26.947Z,22.47
2023-04-22T13:57:53.900Z,22.23
2023-04-22T14:00:21.095Z,22.32
2023-04-22T14:02:48.407Z,22.24
2023-04-22T14:05:15.501Z,22.38
2023-04-22T14:07:42.362Z,22.07
2023-04-22T14:10:12.267Z,22.01
2023-04-22T14:12:39.649Z,21.94
2023-04-22T14:15:11.120Z,21.84
2023-04-22T14:17:39.633Z,21.79
2023-04-22T14:20:07.967Z,21.77
2023-04-22T14:22:34.852Z,21.71
2023-04-22T14:25:01.978Z,21.80
2023-04-22T14:27:28.862Z,21.82
2023-04-22T14:29:55.695Z,21.79
2023-04-22T14:32:22.688Z,21.87
2023-04-22T14:34:49.573Z,21.80
2023-04-22T14:37:16.440Z,21.57
2023-04-22T14:39:43.268Z,21.64
2023-04-22T14:42:10.093Z,21.67
2023-04-22T14:44:36.974Z,21.60
2023-04-22T14:47:04.080Z,21.51
2023-04-22T14:49:32.718Z,21.48
2023-04-22T14:52:01.324Z,21.49
2023-04-22T14:54:28.783Z,21.34
2023-04-22T14:56:56.315Z,21.44
2023-04-22T14:59:23.199Z,21.22
2023-04-22T15:01:50.195Z,21.31
2023-04-22T15:04:19.471Z,21.28
2023-04-22T15:06:46.480Z,21.38
2023-04-22T15:09:13.601Z,21.32
2023-04-22T15:11:41.120Z,21.25
2023-04-22T15:14:07.982Z,21.35
2023-04-22T15:16:34.922Z,21.63
2023-04-22T15:19:01.884Z,21.76
2023-04-22T15:21:30.098Z,21.79
2023-04-22T15:23:56.978Z,21.77
2023-04-22T15:26:23.866Z,21.82
2023-04-22T15:28:51.167Z,21.82
2023-04-22T15:31:20.817Z,21.86
2023-04-22T15:33:47.849Z,21.61
2023-04-22T15:36:18.331Z,21.54
2023-04-22T15:38:45.519Z,21.42
2023-04-22T15:41:12.566Z,21.25
2023-04-22T15:43:39.765Z,21.15
2023-04-22T15:46:08.592Z,20.77
2023-04-22T15:48:35.504Z,20.74
2023-04-22T15:51:02.602Z,20.84
2023-04-22T15:53:29.433Z,20.70
2023-04-22T15:55:56.346Z,20.62
2023-04-22T15:58:23.185Z,20.57
2023-04-22T16:00:50.178Z,20.55
2023-04-22T16:03:17.686Z,20.48
2023-04-22T16:05:44.669Z,20.33
2023-04-22T16:08:12.972Z,20.00
2023-04-22T16:10:39.894Z,20.06
2023-04-22T16:13:06.865Z,20.04
2023-04-22T16:15:34.149Z,19.95
2023-04-22T16:18:01.414Z,20.02
2023-04-22T16:20:28.404Z,19.99
2023-04-22T16:22:55.320Z,19.74
2023-04-22T16:25:22.285Z,19.72
2023-04-22T16:27:49.195Z,19.68
2023-04-22T16:30:17.275Z,19.62
2023-04-22T16:32:44.175Z,19.60
2023-04-22T16:35:11.579Z,19.57
2023-04-22T16:37:38.456Z,19.59
2023-04-22T16:40:07.103Z,19.53
2023-04-22T16:42:33.947Z,19.51
2023-04-22T16:45:01.039Z,19.48
2023-04-22T16:47:27.915Z,19.43
2023-04-22T16:49:54.803Z,18.94
2023-04-22T16:52:21.682Z,18.92
2023-04-22T16:54:48.507Z,18.97
2023-04-22T16:57:15.326Z,18.98
2023-04-22T16:59:42.399Z,18.66
2023-04-22T17:02:09.626Z,18.77
2023-04-22T17:04:36.686Z,18.78
2023-04-22T17:07:03.585Z,18.53
2023-04-22T17:09:30.475Z,18.55
2023-04-22T17:11:57.343Z,18.43
2023-04-22T17:14:24.484Z,18.51
2023-04-22T17:16:51.589Z,18.46
2023-04-22T17:19:18.452Z,18.22
2023-04-22T17:21:45.373Z,18.11
2023-04-22T17:24:12.339Z,18.12
2023-04-22T17:26:39.854Z,18.08
2023-04-22T17:29:06.678Z,18.11
2023-04-22T17:31:34.470Z,18.10
2023-04-22T17:34:01.463Z,18.05
2023-04-22T17:36:28.390Z,17.97
2023-04-22T17:38:55.285Z,17.94
2023-04-22T17:41:22.408Z,17.78
2023-04-22T17:43:50.049Z,17.84
2023-04-22T17:46:16.948Z,17.70
2023-04-22T17:48:46.826Z,17.75
2023-04-22T17:51:14.280Z,17.68
2023-04-22T17:54:41.901Z,17.59
2023-04-22T17:57:09.497Z,17.52
2023-04-22T17:59:36.330Z,17.48
2023-04-22T18:02:04.485Z,17.44
2023-04-22T18:04:32.195Z,17.35
2023-04-22T18:06:59.034Z,17.30
2023-04-22T18:09:27.396Z,17.18
2023-04-22T18:11:59.692Z,17.12
2023-04-22T18:14:26.952Z,16.97
2023-04-22T18:16:54.351Z,16.94
2023-04-22T18:19:21.355Z,16.66
2023-04-22T18:21:59.090Z,16.54
2023-04-22T18:24:28.017Z,16.57
2023-04-22T18:26:55.094Z,16.59
2023-04-22T18:29:22.132Z,16.53
2023-04-22T18:31:49.220Z,16.56
2023-04-22T18:34:16.245Z,16.57
2023-04-22T18:36:43.153Z,16.59
2023-04-22T18:39:10.986Z,16.54
2023-04-22T18:41:39.664Z,16.52
2023-04-22T18:44:06.931Z,16.42
2023-04-22T18:46:33.908Z,16.37
2023-04-22T18:49:00.846Z,16.40
2023-04-22T18:51:27.809Z,16.36
2023-04-22T18:53:54.741Z,16.30
2023-04-22T18:56:21.735Z,16.25
2023-04-22T18:58:50.096Z,16.24
2023-04-22T19:01:17.163Z,16.17
2023-04-22T19:03:44.159Z,16.13
2023-04-22T19:06:11.206Z,16.17
2023-04-22T19:08:38.069Z,16.05
2023-04-22T19:11:05.042Z,16.06
2023-04-22T19:13:31.910Z,16.10
2023-04-22T19:15:58.921Z,15.97
2023-04-22T19:18:26.046Z,15.95
2023-04-22T19:20:53.053Z,15.94
2023-04-22T19:23:19.946Z,15.94
2023-04-22T19:25:46.816Z,15.86
2023-04-22T19:28:13.822Z,15.81
2023-04-22T19:30:41.001Z,15.63
2023-04-22T19:33:08.300Z,15.64
2023-04-22T19:35:35.449Z,15.46
2023-04-22T19:38:02.430Z,15.51
2023-04-22T19:40:29.552Z,15.57
2023-04-22T19:42:58.723Z,15.47
2023-04-22T19:45:27.100Z,15.50
2023-04-22T19:47:54.382Z,15.39
2023-04-22T19:50:21.928Z,15.38
2023-04-22T19:52:51.022Z,15.39
2023-04-22T19:55:18.997Z,15.36
2023-04-22T19:57:46.678Z,15.25
2023-04-22T20:00:14.589Z,15.22
2023-04-22T20:02:42.070Z,15.21
2023-04-22T20:05:09.821Z,15.19
2023-04-22T20:07:38.256Z,15.20
2023-04-22T20:10:08.102Z,15.14
2023-04-22T20:12:35.293Z,15.07
2023-04-22T20:15:05.871Z,14.96
2023-04-22T20:17:38.633Z,14.93
2023-04-22T20:20:13.269Z,14.89
2023-04-22T20:22:44.782Z,14.86
2023-04-22T20:25:15.069Z,14.84
2023-04-22T20:27:42.330Z,14.76
2023-04-22T20:30:10.908Z,14.74
2023-04-22T20:32:37.912Z,14.70
2023-04-22T20:35:06.915Z,14.69
2023-04-22T20:37:36.148Z,14.66
2023-04-22T20:40:06.234Z,14.61
2023-04-22T20:42:33.327Z,14.58
2023-04-22T20:45:00.216Z,14.43
2023-04-22T20:47:27.081Z,14.41
2023-04-22T20:49:53.995Z,14.29
2023-04-22T20:52:20.869Z,14.28
2023-04-22T20:54:54.980Z,14.26
2023-04-22T20:57:21.961Z,14.23
2023-04-22T20:59:48.870Z,14.17
2023-04-22T21:02:17.783Z,14.13
2023-04-22T21:04:44.983Z,14.02
2023-04-22T21:07:12.372Z,13.91
2023-04-22T21:09:40.716Z,13.94
2023-04-22T21:12:08.580Z,13.94
2023-04-22T21:14:35.877Z,13.87
2023-04-22T21:17:15.639Z,13.83
2023-04-22T21:19:49.289Z,13.86
2023-04-22T21:22:21.681Z,13.78
2023-04-22T21:24:50.567Z,13.66
2023-04-22T21:27:18.928Z,13.61
2023-04-22T21:29:46.983Z,13.62
2023-04-22T21:32:14.357Z,13.56
2023-04-22T21:34:41.702Z,13.51
2023-04-22T21:37:09.140Z,13.46
2023-04-22T21:39:36.718Z,13.49
2023-04-22T21:42:08.320Z,13.33
2023-04-22T21:44:36.564Z,13.39
2023-04-22T21:47:04.402Z,13.36
2023-04-22T21:49:31.815Z,13.27
2023-04-22T21:51:59.464Z,13.30
2023-04-22T21:54:26.455Z,13.22
2023-04-22T21:56:53.401Z,13.25
2023-04-22T21:59:20.398Z,13.24
2023-04-22T22:01:47.320Z,13.22
2023-04-22T22:04:16.048Z,13.11
2023-04-22T22:06:45.516Z,13.11
2023-04-22T22:09:14.497Z,13.06
2023-04-22T22:11:41.519Z,13.06
2023-04-22T22:14:08.450Z,13.07
2023-04-22T22:16:35.577Z,13.12
2023-04-22T22:19:05.377Z,13.06
2023-04-22T22:21:33.377Z,13.04
2023-04-22T22:24:00.419Z,13.02
2023-04-22T22:26:28.217Z,12.97
2023-04-22T22:28:55.652Z,12.93
2023-04-22T22:31:22.553Z,12.76
2023-04-22T22:33:49.495Z,12.91
2023-04-22T22:36:16.471Z,12.91
2023-04-22T22:38:43.330Z,12.80
2023-04-22T22:41:10.221Z,12.89
2023-04-22T22:43:37.227Z,12.93
2023-04-22T22:46:04.264Z,12.90
2023-04-22T22:48:31.396Z,12.93
2023-04-22T22:50:58.330Z,12.91
2023-04-22T22:53:25.224Z,12.89
2023-04-22T22:55:52.093Z,12.76
2023-04-22T22:58:18.961Z,12.78
2023-04-22T23:00:45.858Z,12.72
2023-04-22T23:03:13.026Z,12.79
2023-04-22T23:05:40.120Z,12.66
2023-04-22T23:08:07.357Z,12.70
2023-04-22T23:10:34.301Z,12.67
2023-04-22T23:13:01.361Z,12.67
2023-04-22T23:15:28.473Z,12.57
2023-04-22T23:17:55.618Z,12.60
2023-04-22T23:20:22.787Z,12.52
2023-04-22T23:22:51.575Z,12.58
2023-04-22T23:25:18.845Z,12.53
2023-04-22T23:27:46.395Z,12.37
2023-04-22T23:30:13.885Z,12.46
2023-04-22T23:32:43.071Z,12.43
2023-04-22T23:35:13.274Z,12.36
2023-04-22T23:37:45.713Z,12.30
2023-04-22T23:40:13.515Z,12.26
2023-04-22T23:42:40.614Z,12.19
2023-04-22T23:45:08.658Z,12.12
2023-04-22T23:47:35.762Z,12.14
2023-04-22T23:50:03.601Z,12.11
2023-04-22T23:52:30.657Z,12.17
2023-04-22T23:54:58.017Z,12.22
2023-04-22T23:57:25.309Z,12.08
2023-04-22T23:59:52.567Z,12.13
